sensor_id;sensor_type;location;lat;lon;timestamp;P1;durP1;ratioP1;P2;durP2;ratioP2
50543;SDS011;41176;44.032;20.900;2024-03-23T00:53:17;3.60;;;1.67;;
50543;SDS011;41176;44.032;20.900;2024-03-23T00:55:43;3.90;;;1.63;;
50543;SDS011;41176;44.032;20.900;2024-03-23T00:58:09;3.90;;;2.53;;
50543;SDS011;41176;44.032;20.900;2024-03-23T01:00:35;2.15;;;1.42;;
50543;SDS011;41176;44.032;20.900;2024-03-23T01:03:01;2.15;;;1.15;;
50543;SDS011;41176;44.032;20.900;2024-03-23T01:05:26;2.50;;;1.88;;
50543;SDS011;41176;44.032;20.900;2024-03-23T01:07:52;3.47;;;1.63;;
50543;SDS011;41176;44.032;20.900;2024-03-23T01:10:18;1.52;;;1.02;;
50543;SDS011;41176;44.032;20.900;2024-03-23T01:12:43;1.20;;;0.90;;
50543;SDS011;41176;44.032;20.900;2024-03-23T01:15:09;2.17;;;1.40;;
50543;SDS011;41176;44.032;20.900;2024-03-23T01:17:35;1.80;;;1.15;;
50543;SDS011;41176;44.032;20.900;2024-03-23T01:20:01;4.85;;;1.77;;
50543;SDS011;41176;44.032;20.900;2024-03-23T01:22:26;1.13;;;0.90;;
50543;SDS011;41176;44.032;20.900;2024-03-23T01:24:52;1.60;;;0.98;;
50543;SDS011;41176;44.032;20.900;2024-03-23T01:27:18;4.35;;;1.48;;
50543;SDS011;41176;44.032;20.900;2024-03-23T01:29:44;1.63;;;0.95;;
50543;SDS011;41176;44.032;20.900;2024-03-23T01:32:09;1.33;;;1.10;;
50543;SDS011;41176;44.032;20.900;2024-03-23T01:34:35;2.08;;;1.42;;
50543;SDS011;41176;44.032;20.900;2024-03-23T01:37:01;1.40;;;0.82;;
50543;SDS011;41176;44.032;20.900;2024-03-23T01:39:27;3.15;;;1.75;;
50543;SDS011;41176;44.032;20.900;2024-03-23T01:41:52;6.30;;;1.25;;
50543;SDS011;41176;44.032;20.900;2024-03-23T01:44:18;0.90;;;0.80;;
50543;SDS011;41176;44.032;20.900;2024-03-23T01:46:44;2.83;;;1.45;;
50543;SDS011;41176;44.032;20.900;2024-03-23T01:49:10;2.80;;;1.45;;
50543;SDS011;41176;44.032;20.900;2024-03-23T01:51:36;2.17;;;0.93;;
50543;SDS011;41176;44.032;20.900;2024-03-23T01:54:03;1.52;;;1.08;;
50543;SDS011;41176;44.032;20.900;2024-03-23T01:56:29;1.02;;;0.65;;
50543;SDS011;41176;44.032;20.900;2024-03-23T01:58:58;1.40;;;0.90;;
50543;SDS011;41176;44.032;20.900;2024-03-23T02:01:24;0.38;;;0.20;;
50543;SDS011;41176;44.032;20.900;2024-03-23T02:03:50;1.65;;;0.70;;
50543;SDS011;41176;44.032;20.900;2024-03-23T02:06:15;5.47;;;1.95;;
50543;SDS011;41176;44.032;20.900;2024-03-23T02:08:41;1.40;;;0.90;;
50543;SDS011;41176;44.032;20.900;2024-03-23T02:11:08;2.28;;;1.33;;
50543;SDS011;41176;44.032;20.900;2024-03-23T02:13:34;2.03;;;0.73;;
50543;SDS011;41176;44.032;20.900;2024-03-23T02:16:00;2.67;;;0.90;;
50543;SDS011;41176;44.032;20.900;2024-03-23T02:18:26;1.55;;;1.10;;
50543;SDS011;41176;44.032;20.900;2024-03-23T02:20:52;2.15;;;1.45;;
50543;SDS011;41176;44.032;20.900;2024-03-23T02:23:18;1.23;;;0.85;;
50543;SDS011;41176;44.032;20.900;2024-03-23T02:25:44;1.42;;;0.85;;
50543;SDS011;41176;44.032;20.900;2024-03-23T02:28:10;2.40;;;1.02;;
50543;SDS011;41176;44.032;20.900;2024-03-23T02:30:36;1.30;;;1.05;;
50543;SDS011;41176;44.032;20.900;2024-03-23T02:33:02;1.10;;;0.70;;
50543;SDS011;41176;44.032;20.900;2024-03-23T02:35:28;1.02;;;0.63;;
50543;SDS011;41176;44.032;20.900;2024-03-23T02:37:54;4.47;;;1.27;;
50543;SDS011;41176;44.032;20.900;2024-03-23T02:40:22;0.80;;;0.57;;
50543;SDS011;41176;44.032;20.900;2024-03-23T02:42:49;0.80;;;0.50;;
50543;SDS011;41176;44.032;20.900;2024-03-23T02:45:15;1.40;;;1.17;;
50543;SDS011;41176;44.032;20.900;2024-03-23T02:47:40;1.60;;;0.90;;
50543;SDS011;41176;44.032;20.900;2024-03-23T02:50:06;4.63;;;1.27;;
50543;SDS011;41176;44.032;20.900;2024-03-23T02:52:33;2.10;;;1.17;;
50543;SDS011;41176;44.032;20.900;2024-03-23T02:54:59;1.52;;;1.10;;
50543;SDS011;41176;44.032;20.900;2024-03-23T02:57:26;2.92;;;2.20;;
50543;SDS011;41176;44.032;20.900;2024-03-23T02:59:52;5.20;;;1.55;;
50543;SDS011;41176;44.032;20.900;2024-03-23T03:02:18;1.95;;;1.40;;
50543;SDS011;41176;44.032;20.900;2024-03-23T03:04:45;1.50;;;1.05;;
50543;SDS011;41176;44.032;20.900;2024-03-23T03:07:10;2.53;;;1.50;;
50543;SDS011;41176;44.032;20.900;2024-03-23T03:09:36;1.70;;;1.25;;
50543;SDS011;41176;44.032;20.900;2024-03-23T03:12:04;3.20;;;1.33;;
50543;SDS011;41176;44.032;20.900;2024-03-23T03:14:30;1.95;;;1.08;;
50543;SDS011;41176;44.032;20.900;2024-03-23T03:16:56;3.50;;;1.63;;
50543;SDS011;41176;44.032;20.900;2024-03-23T03:19:22;1.88;;;1.70;;
50543;SDS011;41176;44.032;20.900;2024-03-23T03:21:47;3.78;;;1.10;;
50543;SDS011;41176;44.032;20.900;2024-03-23T03:24:14;1.80;;;0.90;;
50543;SDS011;41176;44.032;20.900;2024-03-23T03:26:40;4.28;;;1.67;;
50543;SDS011;41176;44.032;20.900;2024-03-23T03:29:05;1.10;;;0.85;;
50543;SDS011;41176;44.032;20.900;2024-03-23T03:31:31;1.52;;;1.08;;
50543;SDS011;41176;44.032;20.900;2024-03-23T03:33:57;2.15;;;1.38;;
50543;SDS011;41176;44.032;20.900;2024-03-23T03:36:23;2.08;;;1.25;;
50543;SDS011;41176;44.032;20.900;2024-03-23T03:38:48;2.10;;;1.00;;
50543;SDS011;41176;44.032;20.900;2024-03-23T03:41:14;1.40;;;0.68;;
50543;SDS011;41176;44.032;20.900;2024-03-23T03:43:40;1.25;;;0.98;;
50543;SDS011;41176;44.032;20.900;2024-03-23T03:46:06;1.23;;;0.88;;
50543;SDS011;41176;44.032;20.900;2024-03-23T03:48:33;5.15;;;0.95;;
50543;SDS011;41176;44.032;20.900;2024-03-23T03:50:59;1.00;;;0.68;;
50543;SDS011;41176;44.032;20.900;2024-03-23T03:53:25;1.23;;;0.90;;
50543;SDS011;41176;44.032;20.900;2024-03-23T03:55:51;1.83;;;0.75;;
50543;SDS011;41176;44.032;20.900;2024-03-23T03:58:17;1.63;;;1.00;;
50543;SDS011;41176;44.032;20.900;2024-03-23T04:00:43;1.98;;;1.02;;
50543;SDS011;41176;44.032;20.900;2024-03-23T04:03:08;1.70;;;0.98;;
50543;SDS011;41176;44.032;20.900;2024-03-23T04:05:34;1.40;;;0.63;;
50543;SDS011;41176;44.032;20.900;2024-03-23T04:08:00;1.45;;;0.90;;
50543;SDS011;41176;44.032;20.900;2024-03-23T04:10:26;2.42;;;1.17;;
50543;SDS011;41176;44.032;20.900;2024-03-23T04:12:52;1.00;;;0.55;;
50543;SDS011;41176;44.032;20.900;2024-03-23T04:15:18;1.67;;;0.85;;
50543;SDS011;41176;44.032;20.900;2024-03-23T04:17:44;2.50;;;1.70;;
50543;SDS011;41176;44.032;20.900;2024-03-23T04:20:10;2.67;;;1.10;;
50543;SDS011;41176;44.032;20.900;2024-03-23T04:22:39;1.80;;;0.90;;
50543;SDS011;41176;44.032;20.900;2024-03-23T04:25:05;4.40;;;1.63;;
50543;SDS011;41176;44.032;20.900;2024-03-23T04:27:38;2.20;;;1.75;;
50543;SDS011;41176;44.032;20.900;2024-03-23T04:30:04;2.70;;;1.02;;
50543;SDS011;41176;44.032;20.900;2024-03-23T04:32:35;0.90;;;0.60;;
50543;SDS011;41176;44.032;20.900;2024-03-23T04:35:01;2.92;;;1.35;;
50543;SDS011;41176;44.032;20.900;2024-03-23T04:37:28;1.58;;;1.00;;
50543;SDS011;41176;44.032;20.900;2024-03-23T04:39:54;1.30;;;0.68;;
50543;SDS011;41176;44.032;20.900;2024-03-23T04:42:19;1.77;;;1.17;;
50543;SDS011;41176;44.032;20.900;2024-03-23T04:44:45;1.92;;;1.27;;
50543;SDS011;41176;44.032;20.900;2024-03-23T04:47:11;1.27;;;0.80;;
50543;SDS011;41176;44.032;20.900;2024-03-23T04:49:36;2.10;;;1.00;;
50543;SDS011;41176;44.032;20.900;2024-03-23T04:52:05;2.50;;;0.68;;
50543;SDS011;41176;44.032;20.900;2024-03-23T04:54:31;1.33;;;1.20;;
50543;SDS011;41176;44.032;20.900;2024-03-23T04:56:59;3.88;;;1.58;;
50543;SDS011;41176;44.032;20.900;2024-03-23T04:59:25;1.60;;;1.25;;
50543;SDS011;41176;44.032;20.900;2024-03-23T05:01:51;1.48;;;1.30;;
50543;SDS011;41176;44.032;20.900;2024-03-23T05:04:17;1.42;;;0.77;;
50543;SDS011;41176;44.032;20.900;2024-03-23T05:06:42;3.30;;;1.08;;
50543;SDS011;41176;44.032;20.900;2024-03-23T05:09:08;1.02;;;0.85;;
50543;SDS011;41176;44.032;20.900;2024-03-23T05:11:39;1.42;;;0.82;;
50543;SDS011;41176;44.032;20.900;2024-03-23T05:14:06;2.33;;;1.00;;
50543;SDS011;41176;44.032;20.900;2024-03-23T05:16:32;2.38;;;1.35;;
50543;SDS011;41176;44.032;20.900;2024-03-23T05:18:58;2.60;;;1.48;;
50543;SDS011;41176;44.032;20.900;2024-03-23T05:21:24;3.38;;;0.77;;
50543;SDS011;41176;44.032;20.900;2024-03-23T05:23:50;1.65;;;1.20;;
50543;SDS011;41176;44.032;20.900;2024-03-23T05:26:16;2.58;;;1.48;;
50543;SDS011;41176;44.032;20.900;2024-03-23T05:28:42;1.35;;;0.82;;
50543;SDS011;41176;44.032;20.900;2024-03-23T05:31:08;0.93;;;0.57;;
50543;SDS011;41176;44.032;20.900;2024-03-23T05:33:35;1.15;;;0.70;;
50543;SDS011;41176;44.032;20.900;2024-03-23T05:36:03;1.85;;;1.05;;
50543;SDS011;41176;44.032;20.900;2024-03-23T05:38:29;2.17;;;1.17;;
50543;SDS011;41176;44.032;20.900;2024-03-23T05:40:58;2.45;;;0.82;;
50543;SDS011;41176;44.032;20.900;2024-03-23T05:43:25;1.20;;;0.93;;
50543;SDS011;41176;44.032;20.900;2024-03-23T05:45:55;1.85;;;1.40;;
50543;SDS011;41176;44.032;20.900;2024-03-23T05:48:24;0.95;;;0.57;;
50543;SDS011;41176;44.032;20.900;2024-03-23T05:50:55;2.20;;;0.70;;
50543;SDS011;41176;44.032;20.900;2024-03-23T05:53:21;1.48;;;0.90;;
50543;SDS011;41176;44.032;20.900;2024-03-23T05:55:47;1.35;;;1.00;;
50543;SDS011;41176;44.032;20.900;2024-03-23T05:58:14;3.55;;;1.80;;
50543;SDS011;41176;44.032;20.900;2024-03-23T06:00:41;1.50;;;1.33;;
50543;SDS011;41176;44.032;20.900;2024-03-23T06:03:07;3.03;;;1.42;;
50543;SDS011;41176;44.032;20.900;2024-03-23T06:05:33;2.13;;;1.65;;
50543;SDS011;41176;44.032;20.900;2024-03-23T06:07:59;0.98;;;0.77;;
50543;SDS011;41176;44.032;20.900;2024-03-23T06:10:25;0.65;;;0.30;;
50543;SDS011;41176;44.032;20.900;2024-03-23T06:12:50;2.35;;;0.98;;
50543;SDS011;41176;44.032;20.900;2024-03-23T06:15:20;1.08;;;1.00;;
50543;SDS011;41176;44.032;20.900;2024-03-23T06:17:47;0.85;;;0.75;;
50543;SDS011;41176;44.032;20.900;2024-03-23T06:20:13;1.17;;;0.65;;
50543;SDS011;41176;44.032;20.900;2024-03-23T06:22:39;1.23;;;0.77;;
50543;SDS011;41176;44.032;20.900;2024-03-23T06:25:05;2.47;;;1.42;;
50543;SDS011;41176;44.032;20.900;2024-03-23T06:27:32;0.45;;;0.40;;
50543;SDS011;41176;44.032;20.900;2024-03-23T06:29:58;1.73;;;1.23;;
50543;SDS011;41176;44.032;20.900;2024-03-23T06:32:24;1.05;;;0.80;;
50543;SDS011;41176;44.032;20.900;2024-03-23T06:34:50;1.25;;;0.73;;
50543;SDS011;41176;44.032;20.900;2024-03-23T06:37:15;2.35;;;0.75;;
50543;SDS011;41176;44.032;20.900;2024-03-23T06:39:41;0.98;;;0.90;;
50543;SDS011;41176;44.032;20.900;2024-03-23T06:42:07;1.83;;;1.17;;
50543;SDS011;41176;44.032;20.900;2024-03-23T06:44:35;1.23;;;0.63;;
50543;SDS011;41176;44.032;20.900;2024-03-23T06:47:01;0.73;;;0.43;;
50543;SDS011;41176;44.032;20.900;2024-03-23T06:49:27;1.73;;;0.85;;
50543;SDS011;41176;44.032;20.900;2024-03-23T06:51:53;1.15;;;1.05;;
50543;SDS011;41176;44.032;20.900;2024-03-23T06:54:19;0.95;;;0.85;;
50543;SDS011;41176;44.032;20.900;2024-03-23T06:56:45;1.40;;;0.60;;
50543;SDS011;41176;44.032;20.900;2024-03-23T06:59:11;0.90;;;0.75;;
50543;SDS011;41176;44.032;20.900;2024-03-23T07:01:37;0.30;;;0.20;;
50543;SDS011;41176;44.032;20.900;2024-03-23T07:04:03;1.08;;;0.85;;
50543;SDS011;41176;44.032;20.900;2024-03-23T07:06:32;1.05;;;0.80;;
50543;SDS011;41176;44.032;20.900;2024-03-23T07:08:58;0.40;;;0.28;;
50543;SDS011;41176;44.032;20.900;2024-03-23T07:11:24;0.47;;;0.38;;
50543;SDS011;41176;44.032;20.900;2024-03-23T07:13:50;1.42;;;0.63;;
50543;SDS011;41176;44.032;20.900;2024-03-23T07:16:22;1.20;;;0.75;;
50543;SDS011;41176;44.032;20.900;2024-03-23T07:18:49;1.92;;;0.57;;
50543;SDS011;41176;44.032;20.900;2024-03-23T07:21:15;0.73;;;0.50;;
50543;SDS011;41176;44.032;20.900;2024-03-23T07:23:42;0.63;;;0.50;;
50543;SDS011;41176;44.032;20.900;2024-03-23T07:26:10;2.03;;;0.60;;
50543;SDS011;41176;44.032;20.900;2024-03-23T07:28:36;1.58;;;0.90;;
50543;SDS011;41176;44.032;20.900;2024-03-23T07:31:03;0.38;;;0.28;;
50543;SDS011;41176;44.032;20.900;2024-03-23T07:33:29;1.23;;;0.88;;
50543;SDS011;41176;44.032;20.900;2024-03-23T07:35:55;0.52;;;0.40;;
50543;SDS011;41176;44.032;20.900;2024-03-23T07:38:21;1.85;;;1.25;;
50543;SDS011;41176;44.032;20.900;2024-03-23T07:40:47;0.20;;;0.20;;
50543;SDS011;41176;44.032;20.900;2024-03-23T07:43:19;0.68;;;0.60;;
50543;SDS011;41176;44.032;20.900;2024-03-23T07:45:50;1.25;;;0.57;;
50543;SDS011;41176;44.032;20.900;2024-03-23T07:48:18;1.45;;;0.52;;
50543;SDS011;41176;44.032;20.900;2024-03-23T07:50:43;0.93;;;0.30;;
50543;SDS011;41176;44.032;20.900;2024-03-23T07:53:09;1.00;;;0.45;;
50543;SDS011;41176;44.032;20.900;2024-03-23T07:55:35;0.70;;;0.40;;
50543;SDS011;41176;44.032;20.900;2024-03-23T07:58:01;0.20;;;0.10;;
50543;SDS011;41176;44.032;20.900;2024-03-23T08:00:26;0.50;;;0.50;;
50543;SDS011;41176;44.032;20.900;2024-03-23T08:02:52;1.63;;;1.52;;
50543;SDS011;41176;44.032;20.900;2024-03-23T08:05:18;0.47;;;0.30;;
50543;SDS011;41176;44.032;20.900;2024-03-23T08:07:44;2.35;;;1.05;;
50543;SDS011;41176;44.032;20.900;2024-03-23T08:10:09;3.20;;;0.80;;
50543;SDS011;41176;44.032;20.900;2024-03-23T08:12:37;0.25;;;0.20;;
50543;SDS011;41176;44.032;20.900;2024-03-23T08:15:03;0.85;;;0.52;;
50543;SDS011;41176;44.032;20.900;2024-03-23T08:17:29;1.08;;;0.88;;
50543;SDS011;41176;44.032;20.900;2024-03-23T08:19:55;0.40;;;0.30;;
50543;SDS011;41176;44.032;20.900;2024-03-23T08:22:21;0.88;;;0.73;;
50543;SDS011;41176;44.032;20.900;2024-03-23T08:24:47;0.40;;;0.32;;
50543;SDS011;41176;44.032;20.900;2024-03-23T08:27:13;0.20;;;0.13;;
50543;SDS011;41176;44.032;20.900;2024-03-23T08:29:38;0.35;;;0.25;;
50543;SDS011;41176;44.032;20.900;2024-03-23T08:32:04;0.63;;;0.63;;
50543;SDS011;41176;44.032;20.900;2024-03-23T08:34:30;0.43;;;0.22;;
50543;SDS011;41176;44.032;20.900;2024-03-23T08:36:56;0.77;;;0.47;;
50543;SDS011;41176;44.032;20.900;2024-03-23T08:39:21;0.40;;;0.20;;
50543;SDS011;41176;44.032;20.900;2024-03-23T08:41:47;1.42;;;0.82;;
50543;SDS011;41176;44.032;20.900;2024-03-23T08:44:13;1.08;;;0.85;;
50543;SDS011;41176;44.032;20.900;2024-03-23T08:46:38;1.10;;;0.65;;
50543;SDS011;41176;44.032;20.900;2024-03-23T08:49:04;1.27;;;1.02;;
50543;SDS011;41176;44.032;20.900;2024-03-23T08:51:30;2.53;;;0.85;;
50543;SDS011;41176;44.032;20.900;2024-03-23T08:53:56;0.47;;;0.43;;
50543;SDS011;41176;44.032;20.900;2024-03-23T08:56:22;0.77;;;0.35;;
50543;SDS011;41176;44.032;20.900;2024-03-23T08:58:48;0.38;;;0.20;;
50543;SDS011;41176;44.032;20.900;2024-03-23T09:01:13;0.98;;;0.77;;
50543;SDS011;41176;44.032;20.900;2024-03-23T09:03:39;0.63;;;0.50;;
50543;SDS011;41176;44.032;20.900;2024-03-23T09:06:12;2.90;;;1.05;;
50543;SDS011;41176;44.032;20.900;2024-03-23T09:08:40;0.88;;;0.57;;
50543;SDS011;41176;44.032;20.900;2024-03-23T09:11:07;0.68;;;0.40;;
50543;SDS011;41176;44.032;20.900;2024-03-23T09:13:34;2.38;;;1.02;;
50543;SDS011;41176;44.032;20.900;2024-03-23T09:16:00;0.85;;;0.40;;
50543;SDS011;41176;44.032;20.900;2024-03-23T09:18:26;1.10;;;0.50;;
50543;SDS011;41176;44.032;20.900;2024-03-23T09:20:52;0.40;;;0.30;;
50543;SDS011;41176;44.032;20.900;2024-03-23T09:23:20;0.73;;;0.55;;
50543;SDS011;41176;44.032;20.900;2024-03-23T09:25:46;0.40;;;0.30;;
50543;SDS011;41176;44.032;20.900;2024-03-23T09:28:12;1.75;;;0.50;;
50543;SDS011;41176;44.032;20.900;2024-03-23T09:30:37;0.70;;;0.35;;
50543;SDS011;41176;44.032;20.900;2024-03-23T09:33:07;0.40;;;0.20;;
50543;SDS011;41176;44.032;20.900;2024-03-23T09:35:37;0.60;;;0.30;;
50543;SDS011;41176;44.032;20.900;2024-03-23T09:38:03;2.35;;;0.65;;
50543;SDS011;41176;44.032;20.900;2024-03-23T09:40:29;0.40;;;0.40;;
50543;SDS011;41176;44.032;20.900;2024-03-23T09:42:55;0.68;;;0.68;;
50543;SDS011;41176;44.032;20.900;2024-03-23T09:45:21;0.10;;;0.03;;
50543;SDS011;41176;44.032;20.900;2024-03-23T09:47:51;0.43;;;0.38;;
50543;SDS011;41176;44.032;20.900;2024-03-23T09:50:18;2.92;;;1.35;;
50543;SDS011;41176;44.032;20.900;2024-03-23T09:52:45;0.88;;;0.57;;
50543;SDS011;41176;44.032;20.900;2024-03-23T09:55:11;0.32;;;0.15;;
50543;SDS011;41176;44.032;20.900;2024-03-23T09:57:39;0.35;;;0.25;;
50543;SDS011;41176;44.032;20.900;2024-03-23T10:00:05;0.25;;;0.13;;
50543;SDS011;41176;44.032;20.900;2024-03-23T10:02:32;0.70;;;0.68;;
50543;SDS011;41176;44.032;20.900;2024-03-23T10:05:02;0.60;;;0.32;;
50543;SDS011;41176;44.032;20.900;2024-03-23T10:07:27;0.52;;;0.25;;
50543;SDS011;41176;44.032;20.900;2024-03-23T10:09:56;4.63;;;0.57;;
50543;SDS011;41176;44.032;20.900;2024-03-23T10:12:22;0.50;;;0.30;;
50543;SDS011;41176;44.032;20.900;2024-03-23T10:14:49;0.50;;;0.50;;
50543;SDS011;41176;44.032;20.900;2024-03-23T10:17:16;0.20;;;0.10;;
50543;SDS011;41176;44.032;20.900;2024-03-23T10:19:49;0.38;;;0.22;;
50543;SDS011;41176;44.032;20.900;2024-03-23T10:22:18;0.10;;;0.10;;
50543;SDS011;41176;44.032;20.900;2024-03-23T10:24:45;0.35;;;0.10;;
50543;SDS011;41176;44.032;20.900;2024-03-23T10:27:18;0.57;;;0.52;;
50543;SDS011;41176;44.032;20.900;2024-03-23T10:29:48;0.30;;;0.20;;
50543;SDS011;41176;44.032;20.900;2024-03-23T10:32:15;0.50;;;0.35;;
50543;SDS011;41176;44.032;20.900;2024-03-23T10:34:42;0.22;;;0.13;;
50543;SDS011;41176;44.032;20.900;2024-03-23T10:37:08;0.75;;;0.50;;
50543;SDS011;41176;44.032;20.900;2024-03-23T10:39:35;0.20;;;0.20;;
50543;SDS011;41176;44.032;20.900;2024-03-23T10:42:03;0.98;;;0.20;;
50543;SDS011;41176;44.032;20.900;2024-03-23T10:44:30;0.30;;;0.10;;
50543;SDS011;41176;44.032;20.900;2024-03-23T10:46:57;0.55;;;0.45;;
50543;SDS011;41176;44.032;20.900;2024-03-23T10:49:27;0.50;;;0.30;;
50543;SDS011;41176;44.032;20.900;2024-03-23T10:52:01;0.20;;;0.10;;
50543;SDS011;41176;44.032;20.900;2024-03-23T10:54:31;0.63;;;0.45;;
50543;SDS011;41176;44.032;20.900;2024-03-23T10:57:11;0.77;;;0.10;;
50543;SDS011;41176;44.032;20.900;2024-03-23T10:59:40;0.28;;;0.20;;
50543;SDS011;41176;44.032;20.900;2024-03-23T11:02:06;0.70;;;0.47;;
50543;SDS011;41176;44.032;20.900;2024-03-23T11:04:38;0.43;;;0.30;;
50543;SDS011;41176;44.032;20.900;2024-03-23T11:09:51;0.50;;;0.40;;
50543;SDS011;41176;44.032;20.900;2024-03-23T11:14:50;0.45;;;0.30;;
50543;SDS011;41176;44.032;20.900;2024-03-23T11:17:18;0.52;;;0.28;;
50543;SDS011;41176;44.032;20.900;2024-03-23T11:19:46;0.73;;;0.68;;
50543;SDS011;41176;44.032;20.900;2024-03-23T11:22:37;1.10;;;0.70;;
50543;SDS011;41176;44.032;20.900;2024-03-23T11:25:19;1.20;;;0.68;;
50543;SDS011;41176;44.032;20.900;2024-03-23T11:27:46;0.90;;;0.50;;
50543;SDS011;41176;44.032;20.900;2024-03-23T11:32:39;0.40;;;0.20;;
50543;SDS011;41176;44.032;20.900;2024-03-23T11:35:05;0.20;;;0.10;;
50543;SDS011;41176;44.032;20.900;2024-03-23T11:37:31;0.30;;;0.20;;
50543;SDS011;41176;44.032;20.900;2024-03-23T11:39:57;0.50;;;0.40;;
50543;SDS011;41176;44.032;20.900;2024-03-23T11:42:23;0.13;;;0.10;;
50543;SDS011;41176;44.032;20.900;2024-03-23T11:44:48;0.60;;;0.40;;
50543;SDS011;41176;44.032;20.900;2024-03-23T11:47:14;0.43;;;0.32;;
50543;SDS011;41176;44.032;20.900;2024-03-23T11:49:40;0.20;;;0.10;;
50543;SDS011;41176;44.032;20.900;2024-03-23T11:52:06;0.85;;;0.55;;
50543;SDS011;41176;44.032;20.900;2024-03-23T11:54:32;0.55;;;0.43;;
50543;SDS011;41176;44.032;20.900;2024-03-23T11:56:58;0.55;;;0.43;;
50543;SDS011;41176;44.032;20.900;2024-03-23T11:59:35;0.32;;;0.20;;
50543;SDS011;41176;44.032;20.900;2024-03-23T12:02:07;0.38;;;0.10;;
50543;SDS011;41176;44.032;20.900;2024-03-23T12:04:35;0.30;;;0.20;;
50543;SDS011;41176;44.032;20.900;2024-03-23T12:07:14;0.13;;;0.10;;
50543;SDS011;41176;44.032;20.900;2024-03-23T12:09:44;0.50;;;0.30;;
50543;SDS011;41176;44.032;20.900;2024-03-23T12:14:41;0.38;;;0.28;;
50543;SDS011;41176;44.032;20.900;2024-03-23T12:17:13;1.02;;;0.47;;
50543;SDS011;41176;44.032;20.900;2024-03-23T12:19:40;0.25;;;0.10;;
50543;SDS011;41176;44.032;20.900;2024-03-23T12:22:07;0.52;;;0.20;;
50543;SDS011;41176;44.032;20.900;2024-03-23T12:24:34;0.47;;;0.20;;
50543;SDS011;41176;44.032;20.900;2024-03-23T12:27:00;0.25;;;0.22;;
50543;SDS011;41176;44.032;20.900;2024-03-23T12:29:32;0.20;;;0.10;;
50543;SDS011;41176;44.032;20.900;2024-03-23T12:31:59;0.73;;;0.63;;
50543;SDS011;41176;44.032;20.900;2024-03-23T12:34:26;0.32;;;0.20;;
50543;SDS011;41176;44.032;20.900;2024-03-23T12:36:52;0.47;;;0.30;;
50543;SDS011;41176;44.032;20.900;2024-03-23T12:39:18;0.20;;;0.15;;
50543;SDS011;41176;44.032;20.900;2024-03-23T12:41:46;0.40;;;0.28;;
50543;SDS011;41176;44.032;20.900;2024-03-23T12:44:12;0.28;;;0.20;;
50543;SDS011;41176;44.032;20.900;2024-03-23T12:46:39;0.45;;;0.40;;
50543;SDS011;41176;44.032;20.900;2024-03-23T12:49:05;0.30;;;0.17;;
50543;SDS011;41176;44.032;20.900;2024-03-23T12:51:31;0.50;;;0.47;;
50543;SDS011;41176;44.032;20.900;2024-03-23T12:53:57;0.55;;;0.38;;
50543;SDS011;41176;44.032;20.900;2024-03-23T12:56:23;0.45;;;0.38;;
50543;SDS011;41176;44.032;20.900;2024-03-23T12:58:49;0.95;;;0.85;;
50543;SDS011;41176;44.032;20.900;2024-03-23T13:01:16;0.60;;;0.45;;
50543;SDS011;41176;44.032;20.900;2024-03-23T13:03:42;0.75;;;0.38;;
50543;SDS011;41176;44.032;20.900;2024-03-23T13:06:11;0.63;;;0.50;;
50543;SDS011;41176;44.032;20.900;2024-03-23T13:08:36;0.30;;;0.20;;
50543;SDS011;41176;44.032;20.900;2024-03-23T13:11:02;0.32;;;0.28;;
50543;SDS011;41176;44.032;20.900;2024-03-23T13:13:28;0.45;;;0.25;;
50543;SDS011;41176;44.032;20.900;2024-03-23T13:15:54;0.32;;;0.17;;
50543;SDS011;41176;44.032;20.900;2024-03-23T13:18:20;1.15;;;0.52;;
50543;SDS011;41176;44.032;20.900;2024-03-23T13:20:45;0.10;;;0.10;;
50543;SDS011;41176;44.032;20.900;2024-03-23T13:23:12;0.60;;;0.30;;
50543;SDS011;41176;44.032;20.900;2024-03-23T13:25:38;0.25;;;0.20;;
50543;SDS011;41176;44.032;20.900;2024-03-23T13:28:04;0.52;;;0.17;;
50543;SDS011;41176;44.032;20.900;2024-03-23T13:30:30;0.75;;;0.40;;
50543;SDS011;41176;44.032;20.900;2024-03-23T13:32:55;0.50;;;0.50;;
50543;SDS011;41176;44.032;20.900;2024-03-23T13:35:21;0.65;;;0.35;;
50543;SDS011;41176;44.032;20.900;2024-03-23T13:37:47;0.98;;;0.85;;
50543;SDS011;41176;44.032;20.900;2024-03-23T13:40:13;0.63;;;0.43;;
50543;SDS011;41176;44.032;20.900;2024-03-23T13:42:39;0.13;;;0.10;;
50543;SDS011;41176;44.032;20.900;2024-03-23T13:45:05;0.17;;;0.13;;
50543;SDS011;41176;44.032;20.900;2024-03-23T13:47:31;0.55;;;0.28;;
50543;SDS011;41176;44.032;20.900;2024-03-23T13:49:57;2.80;;;0.38;;
50543;SDS011;41176;44.032;20.900;2024-03-23T13:52:23;0.50;;;0.47;;
50543;SDS011;41176;44.032;20.900;2024-03-23T13:54:50;1.20;;;0.55;;
50543;SDS011;41176;44.032;20.900;2024-03-23T13:57:17;0.47;;;0.40;;
50543;SDS011;41176;44.032;20.900;2024-03-23T13:59:46;0.17;;;0.10;;
50543;SDS011;41176;44.032;20.900;2024-03-23T14:02:13;0.73;;;0.52;;
50543;SDS011;41176;44.032;20.900;2024-03-23T14:04:39;0.52;;;0.50;;
50543;SDS011;41176;44.032;20.900;2024-03-23T14:07:05;0.40;;;0.30;;
50543;SDS011;41176;44.032;20.900;2024-03-23T14:09:32;0.38;;;0.25;;
50543;SDS011;41176;44.032;20.900;2024-03-23T14:11:58;0.82;;;0.30;;
50543;SDS011;41176;44.032;20.900;2024-03-23T14:14:25;0.28;;;0.22;;
50543;SDS011;41176;44.032;20.900;2024-03-23T14:16:51;1.10;;;1.00;;
50543;SDS011;41176;44.032;20.900;2024-03-23T14:19:18;1.63;;;0.80;;
50543;SDS011;41176;44.032;20.900;2024-03-23T14:21:44;0.70;;;0.40;;
50543;SDS011;41176;44.032;20.900;2024-03-23T14:24:10;0.80;;;0.20;;
50543;SDS011;41176;44.032;20.900;2024-03-23T14:26:36;2.53;;;0.52;;
50543;SDS011;41176;44.032;20.900;2024-03-23T14:29:02;1.00;;;0.80;;
50543;SDS011;41176;44.032;20.900;2024-03-23T14:31:28;0.73;;;0.57;;
50543;SDS011;41176;44.032;20.900;2024-03-23T14:33:54;0.98;;;0.28;;
50543;SDS011;41176;44.032;20.900;2024-03-23T14:36:20;0.35;;;0.30;;
50543;SDS011;41176;44.032;20.900;2024-03-23T14:38:48;0.82;;;0.45;;
50543;SDS011;41176;44.032;20.900;2024-03-23T14:41:14;0.57;;;0.40;;
50543;SDS011;41176;44.032;20.900;2024-03-23T14:43:40;0.20;;;0.10;;
50543;SDS011;41176;44.032;20.900;2024-03-23T14:46:09;0.50;;;0.30;;
50543;SDS011;41176;44.032;20.900;2024-03-23T14:48:36;0.38;;;0.35;;
50543;SDS011;41176;44.032;20.900;2024-03-23T14:51:02;0.10;;;0.10;;
50543;SDS011;41176;44.032;20.900;2024-03-23T14:53:34;0.45;;;0.30;;
50543;SDS011;41176;44.032;20.900;2024-03-23T14:56:05;0.30;;;0.10;;
50543;SDS011;41176;44.032;20.900;2024-03-23T14:58:37;0.50;;;0.30;;
50543;SDS011;41176;44.032;20.900;2024-03-23T15:01:04;0.55;;;0.45;;
50543;SDS011;41176;44.032;20.900;2024-03-23T15:03:34;3.42;;;0.82;;
50543;SDS011;41176;44.032;20.900;2024-03-23T15:06:08;0.32;;;0.30;;
50543;SDS011;41176;44.032;20.900;2024-03-23T15:08:37;1.08;;;0.47;;
50543;SDS011;41176;44.032;20.900;2024-03-23T15:11:03;0.68;;;0.45;;
50543;SDS011;41176;44.032;20.900;2024-03-23T15:13:32;0.50;;;0.30;;
50543;SDS011;41176;44.032;20.900;2024-03-23T15:15:59;0.47;;;0.30;;
50543;SDS011;41176;44.032;20.900;2024-03-23T15:18:25;0.10;;;0.10;;
50543;SDS011;41176;44.032;20.900;2024-03-23T15:20:54;1.02;;;0.93;;
50543;SDS011;41176;44.032;20.900;2024-03-23T15:23:36;0.38;;;0.28;;
50543;SDS011;41176;44.032;20.900;2024-03-23T15:26:02;0.35;;;0.22;;
50543;SDS011;41176;44.032;20.900;2024-03-23T15:28:29;0.55;;;0.22;;
50543;SDS011;41176;44.032;20.900;2024-03-23T15:31:13;0.70;;;0.30;;
50543;SDS011;41176;44.032;20.900;2024-03-23T15:33:39;0.40;;;0.20;;